Time;durP1;ratioP1;P1;durP2;ratioP2;P2;SDS_P1;SDS_P2;PMS_P1;PMS_P2;Temp;Humidity;BMP_temperature;BMP_pressure;BME280_temperature;BME280_humidity;BME280_pressure;Samples;Min_cycle;Max_cycle;Signal;HPM_P1;HPM_P2
2023/12/14 00:02:15;;;;;;;18.70;9.48;;;;;;;11.49;69.96;97868.56;5032967;28;20392;-78
2023/12/14 00:05:00;;;;;;;59.80;23.20;;;;;;;11.41;70.58;97874.44;5033539;28;20060;-78
2023/12/14 00:07:45;;;;;;;48.50;23.63;;;;;;;11.37;70.49;97885.88;5032256;28;20475;-78
2023/12/14 00:10:31;;;;;;;20.48;9.38;;;;;;;11.18;72.26;97882.94;5060300;28;20408;-79
2023/12/14 00:13:16;;;;;;;31.50;14.43;;;;;;;11.08;72.93;97887.19;5032210;28;20483;-78
2023/12/14 00:16:02;;;;;;;30.40;15.77;;;;;;;11.03;72.89;97900.50;5011367;28;20056;-79
2023/12/14 00:18:47;;;;;;;36.45;15.90;;;;;;;10.87;73.23;97898.88;5032740;28;20072;-78
2023/12/14 00:21:32;;;;;;;31.05;16.23;;;;;;;10.75;73.43;97891.16;5032227;28;20060;-79
2023/12/14 00:24:18;;;;;;;34.08;17.05;;;;;;;10.67;74.43;97890.88;5032859;28;20056;-77
2023/12/14 00:27:04;;;;;;;28.83;13.52;;;;;;;10.63;74.38;97898.56;5039910;28;20491;-78
2023/12/14 00:29:49;;;;;;;29.98;12.95;;;;;;;10.59;75.01;97943.47;5031693;28;20403;-77
2023/12/14 00:32:35;;;;;;;14.63;6.43;;;;;;;10.84;74.01;97952.53;5032276;28;20055;-77
2023/12/14 00:35:20;;;;;;;14.30;7.95;;;;;;;11.23;72.75;97960.06;5033684;28;20483;-78
2023/12/14 00:38:06;;;;;;;12.05;6.40;;;;;;;11.46;71.42;98004.78;5038987;28;20048;-78
2023/12/14 00:40:52;;;;;;;14.15;6.55;;;;;;;11.22;72.68;97991.19;5025309;28;20400;-79
2023/12/14 00:43:38;;;;;;;14.35;8.48;;;;;;;10.95;74.99;98014.53;5032129;28;20056;-78
2023/12/14 00:46:23;;;;;;;27.92;15.60;;;;;;;10.78;75.77;98023.50;5033471;28;20052;-79
2023/12/14 00:49:08;;;;;;;27.67;15.50;;;;;;;10.55;76.82;98030.03;5024914;28;20064;-79
2023/12/14 00:51:54;;;;;;;26.92;15.32;;;;;;;10.49;77.31;98070.09;5033657;28;20456;-78
2023/12/14 00:54:40;;;;;;;29.00;16.38;;;;;;;10.27;78.04;98064.94;5033110;28;20052;-78
2023/12/14 00:57:25;;;;;;;25.23;15.48;;;;;;;10.31;78.54;98081.94;5032603;28;20400;-80
2023/12/14 01:00:12;;;;;;;27.85;17.08;;;;;;;10.23;79.15;98082.41;5031752;28;20071;-79
2023/12/14 01:02:57;;;;;;;27.63;16.63;;;;;;;10.22;79.62;98092.22;5032232;28;20480;-78
2023/12/14 01:05:43;;;;;;;26.73;16.27;;;;;;;10.22;79.66;98123.28;5038505;28;20404;-80
2023/12/14 01:08:29;;;;;;;28.17;16.70;;;;;;;10.17;79.75;98118.72;5032396;28;20071;-78
2023/12/14 01:11:14;;;;;;;30.42;16.80;;;;;;;10.17;79.92;98132.78;5032989;28;20368;-77
2023/12/14 01:14:00;;;;;;;34.30;17.75;;;;;;;10.17;79.84;98132.00;5031953;28;20052;-78
2023/12/14 01:16:45;;;;;;;31.33;17.35;;;;;;;10.13;80.66;98136.22;5032583;28;20063;-78
2023/12/14 01:19:31;;;;;;;33.15;18.02;;;;;;;10.13;80.55;98146.84;5038037;28;20395;-78
2023/12/14 01:22:16;;;;;;;35.33;18.63;;;;;;;10.08;81.21;98157.41;5038106;28;20490;-77
2023/12/14 01:25:01;;;;;;;31.50;18.38;;;;;;;10.05;80.75;98148.09;5024064;28;20068;-78
2023/12/14 01:27:46;;;;;;;31.33;18.95;;;;;;;9.96;81.15;98157.56;5030960;28;20043;-78
2023/12/14 01:30:32;;;;;;;28.00;17.13;;;;;;;9.93;81.79;98166.84;5032007;28;20400;-79
2023/12/14 01:33:19;;;;;;;34.58;19.52;;;;;;;9.88;82.23;98174.75;5019312;28;20060;-78
2023/12/14 01:36:04;;;;;;;32.10;18.90;;;;;;;9.89;82.52;98197.56;5031355;28;20396;-78
2023/12/14 01:38:51;;;;;;;35.97;18.83;;;;;;;9.83;82.89;98189.81;5031801;28;20052;-78
2023/12/14 01:41:35;;;;;;;36.15;19.27;;;;;;;9.73;83.06;98175.38;5031608;28;20040;-77
2023/12/14 01:44:21;;;;;;;33.88;20.10;;;;;;;9.75;83.17;98195.59;5031191;28;20052;-79
2023/12/14 01:47:06;;;;;;;35.03;19.00;;;;;;;9.71;82.50;98195.25;5030524;28;20373;-77
2023/12/14 01:49:51;;;;;;;34.53;19.88;;;;;;;9.72;83.17;98202.97;5031902;28;20064;-77
2023/12/14 01:52:37;;;;;;;37.67;20.25;;;;;;;9.68;82.92;98209.00;5031034;28;20400;-78
2023/12/14 01:55:22;;;;;;;35.28;19.27;;;;;;;9.67;83.27;98213.53;5032854;28;20391;-78
2023/12/14 01:58:08;;;;;;;31.77;19.02;;;;;;;9.68;83.46;98201.88;5017810;28;20479;-78
2023/12/14 02:01:00;;;;;;;35.70;20.15;;;;;;;9.62;82.89;98216.13;5030402;28;20072;-78
2023/12/14 02:03:46;;;;;;;38.95;19.38;;;;;;;9.65;83.54;98234.22;5032073;28;20424;-77
2023/12/14 02:06:32;;;;;;;41.28;19.30;;;;;;;9.69;83.39;98240.63;5037518;28;20068;-79
2023/12/14 02:09:17;;;;;;;36.72;19.70;;;;;;;9.64;84.05;98221.19;5030452;28;20052;-78
2023/12/14 02:12:02;;;;;;;44.38;20.27;;;;;;;9.64;84.01;98235.25;5024523;28;20059;-79
2023/12/14 02:14:49;;;;;;;36.60;19.40;;;;;;;9.60;83.56;98220.09;5035583;28;20068;-78
2023/12/14 02:17:34;;;;;;;33.90;19.23;;;;;;;9.59;83.67;98240.50;5035343;28;20399;-78
2023/12/14 02:20:19;;;;;;;35.95;19.15;;;;;;;9.56;83.86;98230.38;5034703;28;20483;-79
2023/12/14 02:23:05;;;;;;;36.35;18.83;;;;;;;9.53;84.15;98236.19;5036816;28;20479;-78
2023/12/14 02:25:51;;;;;;;38.08;18.95;;;;;;;9.44;83.92;98222.53;5035030;28;20044;-77
2023/12/14 02:28:35;;;;;;;35.45;19.35;;;;;;;9.48;83.87;98238.75;5035690;28;20071;-78
2023/12/14 02:31:21;;;;;;;36.05;19.33;;;;;;;9.52;83.39;98242.50;5040708;28;20052;-79
2023/12/14 02:34:07;;;;;;;33.28;17.80;;;;;;;9.48;84.39;98236.09;5035103;28;20044;-80
2023/12/14 02:36:52;;;;;;;38.65;18.55;;;;;;;9.44;83.89;98227.06;5035621;28;20068;-77
2023/12/14 02:39:38;;;;;;;32.55;17.75;;;;;;;9.46;84.01;98251.47;5035380;28;20142;-78
2023/12/14 02:42:23;;;;;;;34.65;18.33;;;;;;;9.45;83.92;98241.91;5042373;28;20404;-78
2023/12/14 02:45:09;;;;;;;35.60;19.83;;;;;;;9.45;84.00;98247.22;5022506;28;20405;-78
2023/12/14 02:47:55;;;;;;;36.63;17.83;;;;;;;9.47;84.39;98275.09;5021968;28;20068;-78
2023/12/14 02:50:40;;;;;;;39.50;19.15;;;;;;;9.37;84.14;98235.19;5026349;28;20436;-80
2023/12/14 02:53:27;;;;;;;33.58;18.95;;;;;;;9.44;84.22;98253.56;5023811;28;20480;-78
2023/12/14 02:56:13;;;;;;;33.53;17.95;;;;;;;9.45;84.06;98253.31;5012214;28;20506;-78
2023/12/14 02:58:58;;;;;;;38.33;21.13;;;;;;;9.42;83.83;98239.75;5012969;28;20052;-78
2023/12/14 03:01:43;;;;;;;41.10;20.85;;;;;;;9.42;84.07;98237.88;5013236;28;20064;-79
2023/12/14 03:04:29;;;;;;;39.42;20.08;;;;;;;9.36;84.23;98236.22;5013939;28;20060;-79
2023/12/14 03:07:15;;;;;;;37.63;20.05;;;;;;;9.42;83.88;98231.78;5020026;28;20053;-79
2023/12/14 03:10:02;;;;;;;40.25;20.70;;;;;;;9.45;84.21;98249.88;5014000;28;20405;-79
2023/12/14 03:12:47;;;;;;;42.75;20.83;;;;;;;9.48;84.20;98254.69;5014147;28;20068;-78
2023/12/14 03:15:32;;;;;;;39.20;20.50;;;;;;;9.54;83.67;98259.00;5014418;28;20519;-79
2023/12/14 03:18:18;;;;;;;41.42;21.15;;;;;;;9.50;83.47;98260.53;5015193;28;20056;-78
2023/12/14 03:21:04;;;;;;;45.53;24.92;;;;;;;9.46;83.93;98252.28;5015122;28;20479;-78
2023/12/14 03:23:52;;;;;;;47.63;25.92;;;;;;;9.49;83.62;98272.19;5013306;28;20056;-77
2023/12/14 03:26:38;;;;;;;47.15;25.90;;;;;;;9.44;83.44;98274.78;5014836;28;20496;-78
2023/12/14 03:29:23;;;;;;;47.17;24.50;;;;;;;9.42;84.10;98271.56;5013736;28;20476;-79
2023/12/14 03:32:09;;;;;;;46.13;25.33;;;;;;;9.45;83.56;98281.69;5013718;28;20393;-78
2023/12/14 03:34:55;;;;;;;45.78;23.73;;;;;;;9.45;84.13;98279.84;5015404;28;20072;-77
2023/12/14 03:37:40;;;;;;;43.13;23.17;;;;;;;9.38;83.97;98273.13;5014335;28;20531;-77
2023/12/14 03:40:25;;;;;;;49.83;23.65;;;;;;;9.43;84.36;98291.72;5007458;28;20060;-78
2023/12/14 03:43:10;;;;;;;37.95;18.90;;;;;;;9.42;83.85;98303.38;5015975;28;20049;-78
2023/12/14 03:45:56;;;;;;;34.38;18.40;;;;;;;9.33;84.05;98288.94;5008380;28;20476;-78
2023/12/14 03:48:41;;;;;;;37.05;18.52;;;;;;;9.31;84.41;98302.47;5014383;28;20049;-78
2023/12/14 03:51:28;;;;;;;37.13;19.85;;;;;;;9.33;84.28;98313.59;5014479;28;20052;-78
2023/12/14 03:54:13;;;;;;;38.00;18.83;;;;;;;9.38;84.20;98329.59;5006690;28;20067;-78
2023/12/14 03:56:58;;;;;;;38.40;19.65;;;;;;;9.40;84.49;98330.16;5014551;28;20469;-79
2023/12/14 03:59:44;;;;;;;34.03;17.95;;;;;;;9.31;84.37;98328.16;5013154;28;20405;-78
2023/12/14 04:02:29;;;;;;;37.42;18.50;;;;;;;9.40;84.35;98335.47;5013464;28;20476;-79
2023/12/14 04:05:15;;;;;;;35.25;18.80;;;;;;;9.33;84.22;98344.63;5013970;28;20404;-77
2023/12/14 04:08:00;;;;;;;35.38;18.92;;;;;;;9.34;83.92;98354.19;5013266;28;20072;-78
2023/12/14 04:10:45;;;;;;;29.67;15.90;;;;;;;9.40;82.61;98358.50;5013335;28;20068;-78
2023/12/14 04:13:31;;;;;;;30.90;15.23;;;;;;;9.38;82.73;98353.47;5019673;28;20056;-78
2023/12/14 04:16:19;;;;;;;23.38;11.70;;;;;;;9.52;81.32;98351.25;5005987;28;20056;-78
2023/12/14 04:19:09;;;;;;;22.38;12.23;;;;;;;9.51;80.96;98365.59;4992744;28;20068;-78
2023/12/14 04:21:55;;;;;;;22.17;11.52;;;;;;;9.53;81.23;98384.72;5013159;28;20389;-79
2023/12/14 04:24:40;;;;;;;21.08;11.38;;;;;;;9.61;80.18;98391.44;5013726;28;20056;-78
2023/12/14 04:27:28;;;;;;;18.92;10.52;;;;;;;9.55;80.33;98384.47;4998949;28;20060;-78
2023/12/14 04:30:13;;;;;;;20.08;10.90;;;;;;;9.59;81.06;98404.13;5013890;28;20404;-78
2023/12/14 04:32:59;;;;;;;22.33;12.05;;;;;;;9.53;80.55;98399.81;5013934;28;20040;-78
2023/12/14 04:35:44;;;;;;;30.92;15.93;;;;;;;9.50;81.32;98377.25;5012307;28;20044;-79
2023/12/14 04:38:30;;;;;;;33.22;16.88;;;;;;;9.48;82.09;98380.13;5012507;28;20072;-78
2023/12/14 04:41:15;;;;;;;28.67;15.65;;;;;;;9.37;81.98;98409.38;5005218;28;20377;-77
2023/12/14 04:44:01;;;;;;;28.80;13.30;;;;;;;9.46;81.44;98423.84;5014198;28;20397;-77
2023/12/14 04:46:47;;;;;;;20.65;11.20;;;;;;;9.49;81.20;98402.13;4999461;28;20072;-77
2023/12/14 04:49:33;;;;;;;24.15;11.02;;;;;;;9.45;81.00;98435.50;5012941;28;20476;-78
2023/12/14 04:52:18;;;;;;;39.85;19.95;;;;;;;9.45;81.63;98477.94;5013309;28;20056;-78
2023/12/14 04:55:04;;;;;;;40.58;19.98;;;;;;;9.46;82.75;98432.63;5013019;28;20064;-79
2023/12/14 04:57:49;;;;;;;38.60;20.67;;;;;;;9.43;83.07;98421.66;5012934;28;20480;-78
2023/12/14 05:00:34;;;;;;;48.92;24.15;;;;;;;9.33;83.93;98464.75;5011825;28;20057;-77
2023/12/14 05:03:19;;;;;;;47.65;23.40;;;;;;;9.26;84.74;98456.16;5013198;28;20407;-78
2023/12/14 05:06:05;;;;;;;41.63;23.20;;;;;;;9.23;84.91;98465.38;5013255;28;20480;-77
2023/12/14 05:08:50;;;;;;;47.03;23.75;;;;;;;9.20;85.14;98496.88;5011793;28;20415;-78
2023/12/14 05:11:36;;;;;;;51.00;25.63;;;;;;;9.07;86.32;98466.16;5036956;28;20556;-77
2023/12/14 05:14:21;;;;;;;52.47;25.70;;;;;;;9.06;86.78;98464.56;5013442;28;20487;-78
2023/12/14 05:17:07;;;;;;;54.83;25.98;;;;;;;8.96;86.68;98509.41;5018219;28;20401;-78
2023/12/14 05:19:52;;;;;;;46.22;25.23;;;;;;;8.93;87.59;98529.25;5012188;28;20052;-78
2023/12/14 05:22:37;;;;;;;17.33;8.07;;;;;;;8.83;86.76;98491.16;5012557;28;20568;-78
2023/12/14 05:25:23;;;;;;;29.95;15.43;;;;;;;8.79;86.31;98501.41;5020249;28;20481;-79
2023/12/14 05:28:08;;;;;;;18.52;10.23;;;;;;;8.60;86.04;98523.81;5011747;28;20143;-78
2023/12/14 05:30:54;;;;;;;12.13;5.53;;;;;;;8.39;86.00;98525.22;4990455;28;20068;-80
2023/12/14 05:33:39;;;;;;;14.68;7.90;;;;;;;8.34;86.19;98513.47;5012069;28;20056;-78
2023/12/14 05:36:24;;;;;;;14.00;6.82;;;;;;;8.26;84.84;98523.59;5004560;28;20396;-79
2023/12/14 05:39:10;;;;;;;13.35;7.05;;;;;;;8.18;85.08;98524.75;5010883;28;20045;-79
2023/12/14 05:41:55;;;;;;;17.80;8.52;;;;;;;8.07;86.36;98525.56;5017608;28;20408;-79
2023/12/14 05:44:41;;;;;;;14.57;6.85;;;;;;;8.02;87.10;98523.63;5031064;28;20377;-78
2023/12/14 05:47:27;;;;;;;14.93;7.00;;;;;;;7.97;87.73;98535.91;5017002;28;20060;-79
2023/12/14 05:50:12;;;;;;;10.52;5.75;;;;;;;7.96;87.86;98566.03;5031117;28;20480;-79
2023/12/14 05:52:58;;;;;;;14.50;9.10;;;;;;;7.93;87.99;98550.63;5017997;28;20083;-78
2023/12/14 05:55:43;;;;;;;14.43;9.55;;;;;;;7.86;88.11;98535.66;5032871;28;20412;-79
2023/12/14 05:58:29;;;;;;;16.17;9.85;;;;;;;7.76;88.96;98531.97;5032108;28;20079;-78
2023/12/14 06:01:17;;;;;;;16.73;9.07;;;;;;;7.74;88.73;98529.56;5030910;28;20384;-79
2023/12/14 06:04:03;;;;;;;12.77;6.70;;;;;;;7.70;89.86;98546.09;5013502;28;20495;-78
2023/12/14 06:06:48;;;;;;;9.07;4.97;;;;;;;7.68;89.33;98553.44;5031714;28;20419;-78
2023/12/14 06:09:35;;;;;;;12.13;6.63;;;;;;;7.66;89.19;98561.63;5031492;28;20079;-78
2023/12/14 06:12:20;;;;;;;16.85;12.10;;;;;;;7.60;89.09;98550.13;5030921;28;20092;-79
2023/12/14 06:15:06;;;;;;;20.27;15.20;;;;;;;7.60;89.50;98573.13;5037829;28;20048;-78
2023/12/14 06:17:51;;;;;;;28.98;21.63;;;;;;;7.67;89.40;98591.53;5032181;28;20499;-78
2023/12/14 06:20:37;;;;;;;29.25;20.77;;;;;;;7.62;89.20;98585.09;5029437;28;20067;-77
2023/12/14 06:23:22;;;;;;;23.17;17.33;;;;;;;7.52;89.29;98561.03;5029084;28;20047;-78
2023/12/14 06:26:08;;;;;;;21.65;15.15;;;;;;;7.64;89.78;98582.19;5031935;28;20052;-77
2023/12/14 06:28:53;;;;;;;21.27;11.30;;;;;;;7.54;90.10;98582.75;5031178;28;20044;-78
2023/12/14 06:31:39;;;;;;;19.92;12.02;;;;;;;7.55;90.21;98576.44;5032458;28;20056;-77
2023/12/14 06:34:25;;;;;;;24.73;13.93;;;;;;;7.53;90.15;98570.56;5030812;28;20052;-77
2023/12/14 06:37:10;;;;;;;104.25;43.25;;;;;;;7.59;90.12;98579.44;5031979;28;20068;-77
2023/12/14 06:39:56;;;;;;;120.45;48.53;;;;;;;7.63;90.15;98593.81;5032192;28;20483;-77
2023/12/14 06:42:42;;;;;;;82.20;37.55;;;;;;;7.49;90.36;98590.56;5032392;28;20056;-78
2023/12/14 06:45:27;;;;;;;47.83;23.13;;;;;;;7.57;90.55;98607.94;5032504;28;20071;-78
2023/12/14 06:48:12;;;;;;;41.83;22.38;;;;;;;7.57;90.50;98597.34;5031681;28;20052;-79
2023/12/14 06:50:58;;;;;;;47.05;25.88;;;;;;;7.56;90.57;98607.13;5030695;28;20056;-78
2023/12/14 06:53:44;;;;;;;61.88;32.33;;;;;;;7.51;91.10;98608.84;5030745;28;20388;-78
2023/12/14 06:56:29;;;;;;;88.15;41.97;;;;;;;7.53;90.96;98604.13;5030669;28;20052;-78
2023/12/14 06:59:15;;;;;;;68.95;38.10;;;;;;;7.58;90.53;98593.66;5039967;28;20060;-80
2023/12/14 07:02:00;;;;;;;30.17;20.00;;;;;;;7.57;90.84;98595.50;5034634;28;20076;-78
2023/12/14 07:04:46;;;;;;;36.35;22.98;;;;;;;7.55;90.45;98620.56;5035187;28;20479;-78
2023/12/14 07:07:31;;;;;;;36.38;21.08;;;;;;;7.53;90.93;98627.94;5040698;28;20056;-78
2023/12/14 07:10:17;;;;;;;43.67;24.08;;;;;;;7.53;91.14;98625.28;5035451;28;20056;-78
2023/12/14 07:13:03;;;;;;;28.10;17.15;;;;;;;7.48;91.33;98631.22;5040808;28;20056;-78
2023/12/14 07:15:48;;;;;;;27.95;17.35;;;;;;;7.45;90.64;98617.66;5033529;28;20408;-77
2023/12/14 07:18:38;;;;;;;26.15;16.30;;;;;;;7.56;90.80;98630.94;5035334;28;20048;-78
2023/12/14 07:21:23;;;;;;;27.33;14.85;;;;;;;7.53;90.21;98636.66;5033057;28;20432;-79
2023/12/14 07:24:09;;;;;;;23.15;14.50;;;;;;;7.57;90.41;98627.25;5035503;28;20075;-78
2023/12/14 07:26:54;;;;;;;24.50;12.82;;;;;;;7.58;90.18;98639.47;5034515;28;20488;-78
2023/12/14 07:29:40;;;;;;;23.80;14.48;;;;;;;7.51;90.07;98622.84;5034202;28;20380;-78
2023/12/14 07:32:26;;;;;;;33.95;15.93;;;;;;;7.53;90.94;98635.88;5033015;28;20052;-77
2023/12/14 07:35:12;;;;;;;44.33;20.13;;;;;;;7.57;90.61;98631.72;5033839;28;20067;-78
2023/12/14 07:37:57;;;;;;;23.13;14.07;;;;;;;7.58;89.57;98633.34;5033587;28;20063;-78
2023/12/14 07:40:42;;;;;;;27.58;16.40;;;;;;;7.55;89.46;98625.84;5034968;28;20059;-77
2023/12/14 07:43:29;;;;;;;38.25;22.65;;;;;;;7.61;89.37;98630.25;5034000;28;20044;-78
2023/12/14 07:46:14;;;;;;;32.25;16.95;;;;;;;7.68;89.41;98622.22;5034303;28;20476;-77
2023/12/14 07:48:59;;;;;;;268.30;157.05;;;;;;;7.58;89.58;98613.00;5034225;28;20048;-78
2023/12/14 07:51:45;;;;;;;77.68;46.03;;;;;;;7.61;89.97;98624.97;5033636;28;20388;-78
2023/12/14 07:54:30;;;;;;;40.85;24.52;;;;;;;7.55;90.33;98608.19;5034172;28;20088;-78
2023/12/14 07:57:17;;;;;;;34.42;20.33;;;;;;;7.61;90.29;98628.41;5033676;28;20427;-78
2023/12/14 08:00:03;;;;;;;33.38;18.52;;;;;;;7.56;89.89;98601.03;5033114;28;20056;-78
2023/12/14 08:02:50;;;;;;;51.25;28.13;;;;;;;7.71;89.76;98632.34;5040600;28;20056;-77
2023/12/14 08:05:36;;;;;;;36.05;21.75;;;;;;;7.74;90.20;98629.25;5034262;28;20060;-78
2023/12/14 08:08:21;;;;;;;40.35;25.38;;;;;;;7.65;90.53;98618.22;5033044;28;20503;-78
2023/12/14 08:11:07;;;;;;;57.53;29.48;;;;;;;7.67;90.52;98629.34;5033931;28;20377;-77
2023/12/14 08:13:52;;;;;;;47.63;31.15;;;;;;;7.75;89.93;98629.03;5019011;28;20515;-77
2023/12/14 08:16:37;;;;;;;24.02;13.55;;;;;;;7.74;89.21;98616.84;5032576;28;20063;-78
2023/12/14 08:19:23;;;;;;;37.33;17.67;;;;;;;7.85;88.46;98626.66;5034693;28;20052;-77
2023/12/14 08:22:11;;;;;;;13.75;8.65;;;;;;;7.83;88.15;98618.16;5034022;28;20048;-77
2023/12/14 08:24:56;;;;;;;10.48;5.45;;;;;;;7.86;88.43;98622.16;5032314;28;20048;-77
2023/12/14 08:27:43;;;;;;;9.52;5.50;;;;;;;7.84;88.21;98630.34;5034289;28;20052;-78
2023/12/14 08:30:29;;;;;;;13.95;8.88;;;;;;;7.77;87.93;98628.81;5033713;28;20412;-77
2023/12/14 08:33:15;;;;;;;15.43;9.63;;;;;;;7.80;87.89;98642.41;5033904;28;20060;-77
2023/12/14 08:36:00;;;;;;;16.00;10.02;;;;;;;7.80;88.04;98660.94;5033854;28;20400;-78
2023/12/14 08:38:45;;;;;;;15.63;9.23;;;;;;;7.75;87.99;98650.19;5039016;28;20067;-77
2023/12/14 08:41:30;;;;;;;13.75;8.27;;;;;;;7.74;88.36;98634.53;5033455;28;20076;-78
2023/12/14 08:44:17;;;;;;;23.63;13.85;;;;;;;7.77;88.83;98653.44;5032560;28;20396;-78
2023/12/14 08:47:04;;;;;;;35.13;19.77;;;;;;;7.69;89.55;98651.09;5033317;28;20056;-78
2023/12/14 08:49:49;;;;;;;30.95;18.25;;;;;;;7.61;89.67;98630.25;5033425;28;20486;-78
2023/12/14 08:52:35;;;;;;;27.40;14.70;;;;;;;7.59;89.00;98629.69;5024596;28;20400;-79
2023/12/14 08:55:21;;;;;;;27.50;15.38;;;;;;;7.72;88.61;98633.97;5039488;28;20139;-79
2023/12/14 08:58:07;;;;;;;26.63;15.63;;;;;;;7.77;88.85;98642.03;5033214;28;20048;-79
2023/12/14 09:00:53;;;;;;;29.52;17.80;;;;;;;7.89;88.50;98643.66;5033609;28;20067;-77
2023/12/14 09:03:38;;;;;;;27.17;15.90;;;;;;;7.93;88.85;98636.13;5033239;28;20408;-77
2023/12/14 09:06:24;;;;;;;30.83;18.40;;;;;;;7.82;89.24;98650.09;5032100;28;20472;-78
2023/12/14 09:09:11;;;;;;;35.47;19.80;;;;;;;7.80;89.57;98646.88;5031185;28;20115;-77
2023/12/14 09:11:56;;;;;;;25.08;16.00;;;;;;;7.92;89.86;98641.63;5032608;28;20048;-77
2023/12/14 09:14:41;;;;;;;27.25;16.77;;;;;;;7.79;89.90;98639.97;5032628;28;20372;-77
2023/12/14 09:17:32;;;;;;;28.70;17.42;;;;;;;7.86;90.04;98636.19;5032983;28;20052;-77
2023/12/14 09:20:17;;;;;;;25.80;15.77;;;;;;;7.83;89.44;98610.22;5038711;28;20400;-76
2023/12/14 09:23:04;;;;;;;22.65;14.32;;;;;;;7.86;90.04;98617.66;5032687;28;20479;-78
2023/12/14 09:25:49;;;;;;;23.98;13.93;;;;;;;7.76;89.95;98588.31;5039163;28;20055;-76
2023/12/14 09:28:35;;;;;;;26.65;14.60;;;;;;;7.77;90.19;98574.09;5032882;28;20048;-77
2023/12/14 09:31:20;;;;;;;23.33;15.57;;;;;;;7.76;90.45;98593.63;5032869;28;20055;-77
2023/12/14 09:34:05;;;;;;;39.70;22.70;;;;;;;7.83;90.20;98578.47;5038949;28;20052;-78
2023/12/14 09:36:52;;;;;;;24.25;14.48;;;;;;;7.80;90.27;98581.56;5032105;28;20472;-78
2023/12/14 09:39:36;;;;;;;24.15;14.70;;;;;;;7.67;90.32;98573.81;5031174;28;20056;-77
2023/12/14 09:42:23;;;;;;;26.90;15.00;;;;;;;7.71;90.60;98590.84;5030603;28;20403;-79
2023/12/14 09:45:11;;;;;;;27.45;15.55;;;;;;;7.78;90.41;98580.19;5031234;28;20483;-79
2023/12/14 09:48:00;;;;;;;20.67;13.13;;;;;;;7.74;90.15;98561.31;5032556;28;20048;-76
2023/12/14 09:50:45;;;;;;;19.30;12.98;;;;;;;7.84;89.75;98580.06;5017880;28;20095;-77
2023/12/14 09:53:30;;;;;;;19.77;12.35;;;;;;;7.85;89.76;98584.31;5030328;28;20056;-77
2023/12/14 09:56:16;;;;;;;24.02;15.10;;;;;;;7.85;89.41;98589.59;5031300;28;20048;-77
2023/12/14 09:59:04;;;;;;;23.52;15.27;;;;;;;7.90;89.87;98586.31;5032103;28;20056;-77
2023/12/14 10:01:50;;;;;;;25.50;14.30;;;;;;;7.97;89.86;98588.84;5017906;28;20443;-78
2023/12/14 10:04:36;;;;;;;24.15;16.25;;;;;;;7.98;89.49;98598.38;5030985;28;20063;-76
2023/12/14 10:07:22;;;;;;;24.83;15.93;;;;;;;8.04;89.81;98600.13;5017215;28;20048;-76
2023/12/14 10:10:15;;;;;;;32.05;18.35;;;;;;;8.01;89.43;98595.28;5032010;28;20060;-78
2023/12/14 10:13:04;;;;;;;33.90;19.65;;;;;;;8.15;89.43;98590.56;5031647;28;20044;-76
2023/12/14 10:15:51;;;;;;;24.73;13.80;;;;;;;8.11;88.69;98582.28;5031950;28;20060;-76
2023/12/14 10:18:36;;;;;;;25.35;15.25;;;;;;;8.23;88.52;98591.03;5031442;28;20052;-77
2023/12/14 10:21:21;;;;;;;26.92;16.40;;;;;;;8.36;88.64;98587.34;5031139;28;20067;-77
2023/12/14 10:24:07;;;;;;;25.33;15.75;;;;;;;8.42;87.95;98596.25;5032148;28;20060;-76
2023/12/14 10:26:52;;;;;;;23.17;15.35;;;;;;;8.48;87.12;98595.31;5023850;28;20060;-77
2023/12/14 10:29:39;;;;;;;19.67;12.60;;;;;;;8.42;86.80;98589.09;5032063;28;20056;-77
2023/12/14 10:32:24;;;;;;;22.95;12.02;;;;;;;8.36;86.17;98595.28;5023739;28;20449;-77
2023/12/14 10:35:10;;;;;;;18.45;10.90;;;;;;;8.29;87.11;98598.06;5033785;28;20519;-77
2023/12/14 10:37:56;;;;;;;19.33;9.50;;;;;;;8.22;86.23;98592.06;5034934;28;20068;-76
2023/12/14 10:40:43;;;;;;;15.85;9.73;;;;;;;8.18;86.09;98590.94;5034403;28;20492;-77
2023/12/14 10:43:28;;;;;;;19.70;10.65;;;;;;;8.14;86.74;98600.34;5035386;28;20384;-77
2023/12/14 10:46:14;;;;;;;19.05;10.95;;;;;;;8.08;86.70;98595.97;5034179;28;20068;-77
2023/12/14 10:49:00;;;;;;;20.73;11.43;;;;;;;7.99;86.77;98586.75;5035347;28;20060;-77
2023/12/14 10:51:46;;;;;;;24.30;13.10;;;;;;;7.95;87.26;98586.41;5034009;28;20052;-79
2023/12/14 10:54:35;;;;;;;24.50;13.40;;;;;;;7.93;87.97;98587.66;5027744;28;20410;-78
2023/12/14 10:57:22;;;;;;;26.23;14.93;;;;;;;8.05;87.81;98593.78;5034207;28;20060;-78
2023/12/14 11:00:08;;;;;;;23.00;13.00;;;;;;;8.12;87.18;98586.56;5033710;28;20567;-78
2023/12/14 11:02:53;;;;;;;28.73;16.52;;;;;;;8.30;86.56;98601.50;5033964;28;20488;-78
2023/12/14 11:05:39;;;;;;;27.33;15.90;;;;;;;8.33;85.31;98606.34;5035600;28;20392;-79
2023/12/14 11:08:24;;;;;;;30.08;16.52;;;;;;;8.34;84.38;98590.25;5034951;28;20048;-78
2023/12/14 11:11:12;;;;;;;41.97;24.50;;;;;;;8.36;85.09;98582.06;5034466;28;20072;-77
2023/12/14 11:13:58;;;;;;;21.02;12.23;;;;;;;8.39;85.79;98589.56;5026926;28;20052;-78
2023/12/14 11:16:46;;;;;;;26.13;13.93;;;;;;;8.51;85.49;98605.47;5033935;28;20495;-77
2023/12/14 11:19:31;;;;;;;30.45;16.55;;;;;;;8.56;85.14;98608.22;5033016;28;20487;-77
2023/12/14 11:22:27;;;;;;;22.33;13.70;;;;;;;8.60;85.04;98622.63;5035577;28;20404;-78
2023/12/14 11:25:13;;;;;;;26.38;15.48;;;;;;;8.56;85.17;98609.03;5034866;28;20381;-77
2023/12/14 11:28:03;;;;;;;24.40;14.95;;;;;;;8.58;84.86;98616.72;5034362;28;20056;-78
2023/12/14 11:30:49;;;;;;;25.58;15.35;;;;;;;8.59;84.96;98605.13;5033613;28;20068;-78
2023/12/14 11:33:34;;;;;;;29.92;16.58;;;;;;;8.61;84.75;98610.97;5034389;28;20067;-78
2023/12/14 11:36:20;;;;;;;23.83;13.75;;;;;;;8.60;84.41;98601.44;5019579;28;20411;-77
2023/12/14 11:39:06;;;;;;;19.52;11.93;;;;;;;8.58;84.22;98584.94;5035102;28;20063;-77
2023/12/14 11:42:01;;;;;;;23.25;13.95;;;;;;;8.70;85.45;98579.66;5033236;28;20056;-77
2023/12/14 11:44:47;;;;;;;24.23;13.88;;;;;;;8.68;84.37;98574.59;5034545;28;20396;-78
2023/12/14 11:47:33;;;;;;;22.85;12.60;;;;;;;8.78;83.81;98589.88;5034478;28;20468;-79
2023/12/14 11:50:19;;;;;;;25.92;15.60;;;;;;;8.70;83.13;98572.50;5034600;28;20075;-77
2023/12/14 11:53:04;;;;;;;26.75;15.93;;;;;;;8.80;82.95;98577.19;5033499;28;20048;-77
2023/12/14 11:55:49;;;;;;;26.65;14.82;;;;;;;8.85;82.98;98577.31;5032933;28;20048;-78
2023/12/14 11:58:35;;;;;;;24.85;14.10;;;;;;;8.92;82.72;98601.03;5034269;28;20392;-77
2023/12/14 12:01:26;;;;;;;25.02;14.73;;;;;;;8.98;82.99;98610.69;5033762;28;20079;-77
2023/12/14 12:04:11;;;;;;;32.80;19.02;;;;;;;8.92;83.62;98601.03;5020299;28;20400;-77
2023/12/14 12:07:04;;;;;;;39.05;22.10;;;;;;;9.01;83.15;98620.81;5032777;28;20483;-77
2023/12/14 12:09:49;;;;;;;30.17;18.02;;;;;;;8.99;82.94;98617.59;5032704;28;20509;-77
2023/12/14 12:12:35;;;;;;;31.25;19.48;;;;;;;8.97;82.79;98614.41;5033769;28;20103;-77
2023/12/14 12:15:21;;;;;;;26.65;16.92;;;;;;;9.06;82.71;98622.75;5033988;28;20491;-78
2023/12/14 12:18:14;;;;;;;24.63;14.98;;;;;;;9.05;82.53;98595.47;5034146;28;20396;-78
2023/12/14 12:21:03;;;;;;;26.50;16.42;;;;;;;9.12;82.41;98597.97;5025918;28;20401;-78
2023/12/14 12:23:49;;;;;;;26.45;16.13;;;;;;;9.08;83.26;98599.50;5033516;28;20479;-78
2023/12/14 12:26:34;;;;;;;25.27;15.52;;;;;;;9.02;83.46;98595.94;5032769;28;20052;-78
2023/12/14 12:29:19;;;;;;;30.38;18.17;;;;;;;8.85;83.32;98601.16;5033383;28;20511;-77
2023/12/14 12:32:06;;;;;;;34.17;17.80;;;;;;;8.82;83.96;98606.13;5033925;28;20510;-78
2023/12/14 12:34:52;;;;;;;30.25;17.30;;;;;;;8.76;84.62;98615.81;5034333;28;20068;-76
2023/12/14 12:37:37;;;;;;;31.70;16.48;;;;;;;8.69;84.70;98628.38;5033355;28;20384;-78
2023/12/14 12:40:25;;;;;;;37.85;18.40;;;;;;;8.62;84.48;98623.19;5032877;28;20388;-78
2023/12/14 12:43:12;;;;;;;37.42;18.30;;;;;;;8.73;84.92;98634.81;5032017;28;20401;-79
2023/12/14 12:45:59;;;;;;;31.50;18.58;;;;;;;8.67;84.58;98639.19;5040199;28;20052;-77
2023/12/14 12:48:46;;;;;;;32.33;19.38;;;;;;;8.76;84.62;98659.00;5033907;28;20547;-78
2023/12/14 12:51:32;;;;;;;54.40;31.73;;;;;;;8.71;83.84;98655.41;5032132;28;20400;-76